TimeEDT,TemperatureF,Dew PointF,Humidity,Sea Level PressureIn,VisibilityMPH,Wind Direction,Wind SpeedMPH,Gust SpeedMPH,PrecipitationIn,Events,Conditions,WindDirDegrees,DateUTC
12:53 AM,77.0,71.1,82,30.24,10.0,Calm,Calm,-,N/A,,Clear,0,2013-07-17 04:53:00
1:53 AM,80.1,70.0,71,30.22,10.0,Calm,Calm,-,N/A,,Mostly Cloudy,0,2013-07-17 05:53:00
2:53 AM,75.9,70.0,82,30.22,10.0,Calm,Calm,-,N/A,,Partly Cloudy,0,2013-07-17 06:53:00
3:53 AM,77.0,70.0,79,30.22,10.0,South,3.5,-,N/A,,Clear,170,2013-07-17 07:53:00
4:53 AM,75.0,70.0,84,30.23,10.0,Calm,Calm,-,N/A,,Clear,0,2013-07-17 08:53:00
5:53 AM,73.9,70.0,87,30.25,8.0,ENE,3.5,-,N/A,,Clear,70,2013-07-17 09:53:00
6:53 AM,73.9,71.1,91,30.26,7.0,Calm,Calm,-,N/A,,Clear,0,2013-07-17 10:53:00
7:53 AM,77.0,71.1,82,30.26,8.0,Calm,Calm,-,N/A,,Clear,0,2013-07-17 11:53:00
8:53 AM,82.0,72.0,71,30.27,9.0,Calm,Calm,-,N/A,,Clear,0,2013-07-17 12:53:00
9:53 AM,86.0,72.0,63,30.27,10.0,NNE,6.9,-,N/A,,Clear,30,2013-07-17 13:53:00
10:53 AM,89.1,71.1,55,30.26,10.0,NNE,6.9,-,N/A,,Clear,20,2013-07-17 14:53:00
11:53 AM,91.9,64.9,41,30.25,10.0,NNE,12.7,16.1,N/A,,Clear,30,2013-07-17 15:53:00
12:53 PM,91.9,64.9,41,30.24,10.0,NNE,8.1,17.3,N/A,,Clear,20,2013-07-17 16:53:00
1:53 PM,93.9,64.9,38,30.22,10.0,ENE,8.1,-,N/A,,Clear,60,2013-07-17 17:53:00
2:53 PM,93.9,64.9,38,30.20,10.0,NE,9.2,-,N/A,,Clear,50,2013-07-17 18:53:00
3:53 PM,93.9,63.0,36,30.18,10.0,ENE,4.6,-,N/A,,Clear,70,2013-07-17 19:53:00
4:53 PM,93.0,66.9,42,30.17,10.0,NNE,8.1,-,N/A,,Mostly Cloudy,20,2013-07-17 20:53:00
5:53 PM,93.9,68.0,43,30.15,10.0,ENE,4.6,-,N/A,,Mostly Cloudy,70,2013-07-17 21:53:00
6:53 PM,91.9,68.0,45,30.13,10.0,East,4.6,-,N/A,,Clear,80,2013-07-17 22:53:00
7:53 PM,91.0,69.1,48,30.14,10.0,Calm,Calm,-,N/A,,Mostly Cloudy,0,2013-07-17 23:53:00
8:53 PM,89.1,70.0,53,30.15,10.0,Calm,Calm,-,N/A,,Partly Cloudy,0,2013-07-18 00:53:00
9:53 PM,89.1,70.0,53,30.15,10.0,Calm,Calm,-,N/A,,Scattered Clouds,0,2013-07-18 01:53:00
10:53 PM,84.0,72.0,67,30.16,10.0,Calm,Calm,-,N/A,,Partly Cloudy,0,2013-07-18 02:53:00
11:53 PM,81.0,73.0,77,30.17,8.0,NW,4.6,-,N/A,,Clear,320,2013-07-18 03:53:00